Time;durP1;ratioP1;P1;durP2;ratioP2;P2;SDS_P1;SDS_P2;PMS_P1;PMS_P2;Temp;Humidity;BMP_temperature;BMP_pressure;BME280_temperature;BME280_humidity;BME280_pressure;Samples;Min_cycle;Max_cycle;Signal;HPM_P1;HPM_P2
2022/10/28 00:01:29;;;;;;;9.73;3.95;;;;;;;23.87;46.23;97831.38;5155245;27;20478;-34
2022/10/28 00:03:57;;;;;;;10.55;3.75;;;;;;;23.88;45.88;97832.91;5136591;27;20019;-35
2022/10/28 00:06:29;;;;;;;10.43;3.67;;;;;;;23.85;46.01;97840.19;5155373;27;20027;-35
2022/10/28 00:08:55;;;;;;;9.57;3.97;;;;;;;23.82;45.97;97834.84;5155194;27;20014;-34
2022/10/28 00:11:29;;;;;;;8.85;4.53;;;;;;;23.85;45.88;97831.88;5155282;27;20023;-33
2022/10/28 00:13:58;;;;;;;7.55;3.58;;;;;;;23.86;45.84;97829.88;5155000;27;20045;-33
2022/10/28 00:16:26;;;;;;;9.43;3.60;;;;;;;23.75;45.87;97830.44;5155111;27;20415;-34
2022/10/28 00:18:52;;;;;;;9.43;3.42;;;;;;;23.76;45.88;97831.97;5154965;27;20038;-37
2022/10/28 00:21:29;;;;;;;7.05;3.67;;;;;;;23.72;46.06;97831.44;5155078;27;20046;-35
2022/10/28 00:23:55;;;;;;;10.15;3.80;;;;;;;23.80;45.64;97838.09;5155041;27;20037;-34
2022/10/28 00:26:23;;;;;;;13.05;4.07;;;;;;;23.77;45.55;97841.81;5155520;27;20019;-34
2022/10/28 00:28:55;;;;;;;8.00;4.18;;;;;;;23.72;45.69;97839.75;5159139;27;20518;-33
2022/10/28 00:31:22;;;;;;;10.98;3.85;;;;;;;23.73;45.85;97835.72;5159724;27;20030;-34
2022/10/28 00:33:48;;;;;;;6.47;3.35;;;;;;;23.73;45.95;97835.72;5159150;27;20446;-34
2022/10/28 00:36:24;;;;;;;7.75;3.17;;;;;;;23.74;45.82;97834.47;5157457;27;20026;-33
2022/10/28 00:38:51;;;;;;;9.70;3.50;;;;;;;23.78;45.65;97832.25;5136091;27;20031;-34
2022/10/28 00:41:22;;;;;;;10.35;4.18;;;;;;;23.76;45.60;97837.50;5148803;27;20434;-35
2022/10/28 00:43:54;;;;;;;11.13;4.25;;;;;;;23.70;45.89;97827.59;5140538;27;20030;-33
2022/10/28 00:46:38;;;;;;;11.02;3.53;;;;;;;23.67;45.76;97834.88;5140582;27;20361;-34
2022/10/28 00:49:13;;;;;;;11.07;4.07;;;;;;;23.71;45.79;97829.91;5158739;27;20035;-34
2022/10/28 00:51:40;;;;;;;10.75;3.42;;;;;;;23.71;45.57;97824.38;5158970;27;20087;-34
2022/10/28 00:54:06;;;;;;;8.60;3.50;;;;;;;23.62;45.83;97827.22;5158360;27;20043;-33
2022/10/28 00:56:36;;;;;;;11.25;3.78;;;;;;;23.63;45.97;97823.22;5158629;27;20023;-33
2022/10/28 00:59:07;;;;;;;8.23;3.92;;;;;;;23.69;45.72;97829.63;5158721;27;20019;-34
2022/10/28 01:01:32;;;;;;;11.75;4.95;;;;;;;23.64;45.91;97825.50;5158851;27;20018;-34
2022/10/28 01:03:59;;;;;;;9.00;4.18;;;;;;;23.69;45.72;97817.78;5158435;27;20415;-35
2022/10/28 01:06:26;;;;;;;12.18;3.80;;;;;;;23.69;45.79;97818.53;5158308;27;20076;-39
2022/10/28 01:08:52;;;;;;;11.20;4.03;;;;;;;23.67;45.43;97817.47;5158288;27;20027;-36
2022/10/28 01:12:13;;;;;;;11.52;4.53;;;;;;;23.57;45.32;97820.38;5158418;27;20071;-35
2022/10/28 01:15:13;;;;;;;12.45;3.83;;;;;;;23.63;45.31;97817.66;5054184;28;20044;-37
2022/10/28 01:17:50;;;;;;;8.50;3.50;;;;;;;23.65;45.30;97823.50;5026544;28;20469;-33
2022/10/28 01:20:34;;;;;;;9.88;4.05;;;;;;;23.60;45.37;97810.34;5054226;28;20048;-34
2022/10/28 01:23:19;;;;;;;10.32;3.90;;;;;;;23.62;45.16;97810.59;5054332;28;20048;-34
2022/10/28 01:25:54;;;;;;;11.35;3.75;;;;;;;23.60;45.20;97813.13;5024029;28;20044;-34
2022/10/28 01:28:53;;;;;;;13.75;4.07;;;;;;;23.54;45.38;97815.03;5054096;28;20037;-36
2022/10/28 01:31:39;;;;;;;8.63;3.50;;;;;;;23.56;45.17;97807.00;5053971;28;20449;-34
2022/10/28 01:34:13;;;;;;;9.05;4.07;;;;;;;23.56;45.57;97804.22;5053885;28;20037;-34
2022/10/28 01:36:49;;;;;;;10.10;3.97;;;;;;;23.57;45.11;97797.44;5054306;28;20029;-33
2022/10/28 01:39:27;;;;;;;9.18;3.70;;;;;;;23.54;44.89;97799.16;5053085;28;20037;-34
2022/10/28 01:42:11;;;;;;;11.13;3.80;;;;;;;23.57;45.37;97800.22;5053851;28;20116;-34
2022/10/28 01:45:19;;;;;;;12.40;4.00;;;;;;;23.56;45.22;97795.94;5084559;27;20126;-33
2022/10/28 01:47:50;;;;;;;10.45;3.83;;;;;;;23.48;45.03;97790.00;5121028;27;20109;-34
2022/10/28 01:50:36;;;;;;;10.68;3.85;;;;;;;23.57;44.78;97794.69;5157998;27;20022;-33
2022/10/28 01:53:08;;;;;;;10.50;3.40;;;;;;;23.50;45.17;97792.25;5157771;27;20438;-34
2022/10/28 01:55:38;;;;;;;11.05;3.75;;;;;;;23.50;45.53;97790.28;5157623;27;20035;-33
2022/10/28 01:58:06;;;;;;;8.32;3.50;;;;;;;23.60;45.49;97785.41;5138846;27;20034;-33
2022/10/28 02:00:33;;;;;;;10.60;4.05;;;;;;;23.56;45.61;97793.16;5138839;27;20462;-34
2022/10/28 02:02:58;;;;;;;9.40;3.92;;;;;;;23.54;45.95;97784.56;5157388;27;20026;-35
2022/10/28 02:05:37;;;;;;;8.10;3.90;;;;;;;23.55;45.83;97783.31;5157351;27;20019;-34
2022/10/28 02:08:17;;;;;;;10.60;4.38;;;;;;;23.52;46.00;97785.03;5157267;27;20025;-34
2022/10/28 02:11:15;;;;;;;10.43;3.53;;;;;;;23.53;45.90;97775.50;5157752;27;20019;-35
2022/10/28 02:13:57;;;;;;;9.88;3.95;;;;;;;23.52;46.09;97779.50;5157197;27;20071;-35
2022/10/28 02:16:37;;;;;;;10.23;4.75;;;;;;;23.51;46.13;97789.03;5157131;27;20038;-33
2022/10/28 02:19:08;;;;;;;13.60;4.22;;;;;;;23.49;46.25;97788.00;5138654;27;20033;-34
2022/10/28 02:22:01;;;;;;;9.20;3.80;;;;;;;23.50;46.15;97781.19;5138759;27;20023;-33
2022/10/28 02:24:54;;;;;;;14.82;4.15;;;;;;;23.47;46.25;97771.88;5157259;27;20049;-33
2022/10/28 02:27:31;;;;;;;11.10;4.80;;;;;;;23.52;46.17;97778.72;5109787;27;20062;-35
2022/10/28 02:30:14;;;;;;;8.60;3.42;;;;;;;23.51;46.60;97771.66;5138237;27;20431;-34
2022/10/28 02:32:45;;;;;;;10.15;4.88;;;;;;;23.48;46.59;97784.47;5156805;27;20031;-34
2022/10/28 02:35:16;;;;;;;12.18;4.13;;;;;;;23.48;46.68;97778.16;5157009;27;20071;-34
2022/10/28 02:37:44;;;;;;;8.77;4.75;;;;;;;23.53;46.43;97780.25;5156758;27;20470;-33
2022/10/28 02:40:15;;;;;;;10.32;4.07;;;;;;;23.56;46.34;97773.78;5156568;27;20035;-34
2022/10/28 02:42:48;;;;;;;10.60;3.72;;;;;;;23.54;46.23;97777.03;5156688;27;20030;-33
2022/10/28 02:45:18;;;;;;;7.95;4.38;;;;;;;23.55;46.29;97775.00;5156507;27;20030;-33
2022/10/28 02:47:50;;;;;;;9.57;4.05;;;;;;;23.45;46.50;97790.19;5156509;27;20109;-34
2022/10/28 02:50:21;;;;;;;10.07;3.60;;;;;;;23.45;46.47;97776.34;5156525;27;20022;-34
2022/10/28 02:52:52;;;;;;;7.75;4.20;;;;;;;23.47;46.35;97774.63;5137827;27;20023;-33
2022/10/28 02:55:21;;;;;;;10.15;4.72;;;;;;;23.44;46.47;97774.81;5156210;27;20508;-34
2022/10/28 02:57:48;;;;;;;12.50;4.57;;;;;;;23.46;46.46;97781.41;5156390;27;20030;-33
2022/10/28 03:00:23;;;;;;;12.77;4.57;;;;;;;23.47;46.47;97782.16;5156200;27;20027;-35
2022/10/28 03:02:48;;;;;;;9.30;4.03;;;;;;;23.49;46.43;97774.88;5156685;27;20018;-34
2022/10/28 03:05:14;;;;;;;11.10;4.53;;;;;;;23.43;46.53;97776.06;5137583;27;20022;-34
2022/10/28 03:07:40;;;;;;;7.82;4.07;;;;;;;23.39;46.37;97781.00;5155953;27;20132;-35
2022/10/28 03:10:06;;;;;;;10.63;3.85;;;;;;;23.38;46.71;97785.03;5156090;27;20101;-33
2022/10/28 03:12:32;;;;;;;9.75;4.70;;;;;;;23.41;46.48;97781.31;5156146;27;20027;-34
2022/10/28 03:14:57;;;;;;;14.32;4.45;;;;;;;23.38;46.79;97787.78;5155979;27;20030;-34
2022/10/28 03:17:23;;;;;;;11.90;4.30;;;;;;;23.42;46.31;97785.59;5155910;27;20030;-34
2022/10/28 03:19:48;;;;;;;9.55;4.28;;;;;;;23.46;46.46;97783.41;5137324;27;20057;-33
2022/10/28 03:22:14;;;;;;;12.65;4.53;;;;;;;23.36;46.51;97782.75;5155628;27;20018;-35
2022/10/28 03:24:39;;;;;;;9.18;4.25;;;;;;;23.34;46.60;97785.25;5155939;27;20041;-34
2022/10/28 03:27:05;;;;;;;12.15;4.22;;;;;;;23.38;46.42;97782.25;5155939;27;20026;-34
2022/10/28 03:29:30;;;;;;;9.52;4.00;;;;;;;23.35;46.80;97780.47;5155863;27;20018;-34
2022/10/28 03:31:56;;;;;;;11.38;4.25;;;;;;;23.41;46.72;97784.06;5155720;27;20499;-33
2022/10/28 03:34:21;;;;;;;8.95;4.47;;;;;;;23.40;46.68;97785.31;5155522;27;20019;-33
2022/10/28 03:36:47;;;;;;;12.45;4.57;;;;;;;23.44;46.76;97785.88;5155716;27;20031;-33
2022/10/28 03:39:12;;;;;;;11.73;4.20;;;;;;;23.36;46.76;97779.22;5155488;27;20046;-35
2022/10/28 03:41:37;;;;;;;9.20;4.38;;;;;;;23.40;46.68;97788.84;5155700;27;20023;-34
2022/10/28 03:44:03;;;;;;;10.77;4.30;;;;;;;23.35;47.21;97781.22;5155259;27;20018;-33
2022/10/28 03:46:28;;;;;;;8.13;4.35;;;;;;;23.34;47.29;97778.94;5155438;27;20022;-34
2022/10/28 03:48:54;;;;;;;7.88;4.10;;;;;;;23.38;46.92;97783.03;5155293;27;20027;-34
2022/10/28 03:51:19;;;;;;;11.48;4.55;;;;;;;23.36;47.08;97788.28;5155595;27;20538;-34
2022/10/28 03:53:45;;;;;;;10.63;4.20;;;;;;;23.36;47.35;97790.31;5155173;27;20046;-34
2022/10/28 03:56:11;;;;;;;10.57;4.28;;;;;;;23.36;47.22;97779.22;5155253;27;20022;-34
2022/10/28 03:58:37;;;;;;;8.05;4.40;;;;;;;23.33;47.20;97769.88;5136900;27;20030;-34
2022/10/28 04:01:02;;;;;;;6.28;4.32;;;;;;;23.29;47.53;97777.59;5136189;27;20029;-34
2022/10/28 04:03:28;;;;;;;9.30;4.28;;;;;;;23.26;47.36;97776.53;5155236;27;20531;-33
2022/10/28 04:05:53;;;;;;;8.85;4.85;;;;;;;23.29;47.53;97780.38;5155287;27;20018;-33
2022/10/28 04:08:20;;;;;;;12.35;5.22;;;;;;;23.36;47.65;97782.75;5121934;27;20066;-34
2022/10/28 04:10:47;;;;;;;7.78;4.35;;;;;;;23.34;47.47;97784.47;5134537;28;20057;-34
2022/10/28 04:13:13;;;;;;;8.88;4.20;;;;;;;23.39;47.73;97781.00;5134364;28;20031;-33
2022/10/28 04:15:38;;;;;;;11.35;4.15;;;;;;;23.41;47.45;97786.84;5134458;28;20030;-33
2022/10/28 04:18:05;;;;;;;8.38;4.47;;;;;;;23.33;47.79;97780.94;5134451;28;20019;-34
2022/10/28 04:20:30;;;;;;;7.95;4.65;;;;;;;23.24;47.72;97783.81;5134301;28;20027;-34
2022/10/28 04:22:56;;;;;;;9.75;4.38;;;;;;;23.33;47.69;97777.41;5134601;28;20023;-34
2022/10/28 04:25:22;;;;;;;9.73;4.40;;;;;;;23.32;47.68;97784.19;5134464;28;20015;-34
2022/10/28 04:27:48;;;;;;;9.48;4.45;;;;;;;23.37;47.53;97783.53;5134381;28;20023;-33
2022/10/28 04:30:14;;;;;;;8.02;4.03;;;;;;;23.31;47.52;97780.66;5134048;28;20030;-35
2022/10/28 04:32:41;;;;;;;8.85;4.80;;;;;;;23.30;47.70;97781.91;5134309;28;20391;-34
2022/10/28 04:35:08;;;;;;;11.70;4.57;;;;;;;23.28;48.02;97776.84;5134053;28;20160;-34
2022/10/28 04:37:34;;;;;;;11.73;4.32;;;;;;;23.33;47.65;97777.41;5134179;28;20379;-35
2022/10/28 04:39:59;;;;;;;6.95;3.83;;;;;;;23.31;48.00;97774.34;5134385;28;20402;-34
2022/10/28 04:42:25;;;;;;;9.65;4.60;;;;;;;23.34;47.65;97779.72;5134427;28;20023;-34
2022/10/28 04:44:51;;;;;;;10.43;5.05;;;;;;;23.29;47.64;97783.13;5134179;28;20015;-34
2022/10/28 04:47:17;;;;;;;8.80;4.47;;;;;;;23.32;47.84;97778.66;5134045;28;20109;-33
2022/10/28 04:49:43;;;;;;;13.07;4.78;;;;;;;23.26;48.06;97781.31;5133949;28;20035;-33
2022/10/28 04:52:10;;;;;;;13.18;4.38;;;;;;;23.27;47.77;97785.63;5133942;28;20029;-33
2022/10/28 04:54:35;;;;;;;10.48;4.13;;;;;;;23.36;47.82;97776.47;5133739;28;20119;-34
2022/10/28 04:57:01;;;;;;;15.13;4.57;;;;;;;23.30;47.94;97784.66;5134144;28;20047;-34
2022/10/28 04:59:27;;;;;;;10.13;4.93;;;;;;;23.25;47.78;97783.31;5133844;28;20071;-34
2022/10/28 05:01:53;;;;;;;9.50;4.90;;;;;;;23.31;48.05;97782.66;5134028;28;20023;-33
2022/10/28 05:04:18;;;;;;;15.00;4.88;;;;;;;23.32;47.81;97784.19;5133729;28;20106;-33
2022/10/28 05:06:44;;;;;;;9.25;4.72;;;;;;;23.32;47.75;97786.97;5134025;28;20378;-34
2022/10/28 05:09:12;;;;;;;8.73;4.50;;;;;;;23.24;47.83;97787.31;5133730;28;20033;-34
2022/10/28 05:11:38;;;;;;;8.18;4.13;;;;;;;23.24;48.19;97781.78;5133856;28;20476;-34
2022/10/28 05:14:03;;;;;;;7.40;4.93;;;;;;;23.21;48.07;97784.78;5135461;27;20110;-34
2022/10/28 05:16:29;;;;;;;8.38;4.38;;;;;;;23.24;47.68;97784.56;5137743;27;20226;-34
2022/10/28 05:18:56;;;;;;;12.25;4.43;;;;;;;23.24;47.80;97787.31;5137556;27;20038;-35
2022/10/28 05:21:21;;;;;;;11.45;4.75;;;;;;;23.21;47.85;97782.78;5137421;27;20436;-33
2022/10/28 05:23:47;;;;;;;10.65;4.78;;;;;;;23.23;47.75;97774.75;5137418;27;20052;-34
2022/10/28 05:26:13;;;;;;;13.68;4.90;;;;;;;23.21;47.74;97782.78;5137262;27;20029;-34
2022/10/28 05:28:39;;;;;;;9.20;4.88;;;;;;;23.21;47.64;97782.00;5137335;27;20032;-34
2022/10/28 05:31:04;;;;;;;11.80;4.57;;;;;;;23.17;47.56;97779.44;5140717;27;20023;-34
2022/10/28 05:33:30;;;;;;;7.78;4.57;;;;;;;23.20;47.66;97786.78;5152840;27;20031;-34
2022/10/28 05:35:57;;;;;;;9.52;5.00;;;;;;;23.23;47.33;97782.28;5151939;27;20355;-34
2022/10/28 05:38:23;;;;;;;8.15;4.85;;;;;;;23.16;47.77;97783.44;5135292;27;20034;-35
2022/10/28 05:40:48;;;;;;;10.63;4.60;;;;;;;23.21;47.40;97782.78;5116491;27;20023;-34
2022/10/28 05:43:14;;;;;;;12.38;5.22;;;;;;;23.20;47.30;97786.78;5134635;27;20054;-34
2022/10/28 05:45:39;;;;;;;8.68;4.85;;;;;;;23.21;47.59;97791.06;5134739;27;20029;-34
2022/10/28 05:48:05;;;;;;;11.68;4.93;;;;;;;23.20;47.54;97786.78;5138342;27;20038;-34
2022/10/28 05:50:31;;;;;;;9.80;4.60;;;;;;;23.19;47.55;97793.56;5155676;27;20023;-34
2022/10/28 05:52:56;;;;;;;11.52;4.82;;;;;;;23.15;47.89;97798.50;5153714;27;20023;-34
2022/10/28 05:55:26;;;;;;;12.43;5.45;;;;;;;23.16;47.86;97790.97;5155121;27;20046;-34
2022/10/28 05:57:52;;;;;;;11.07;5.05;;;;;;;23.18;47.71;97789.25;5155441;27;20510;-34
2022/10/28 06:00:21;;;;;;;7.72;4.57;;;;;;;23.25;47.47;97788.09;5155590;27;20027;-34
2022/10/28 06:02:47;;;;;;;10.93;4.55;;;;;;;23.14;47.90;97798.97;5155184;27;20465;-33
2022/10/28 06:05:13;;;;;;;9.23;4.65;;;;;;;23.17;47.41;97796.03;5155449;27;20031;-34
2022/10/28 06:07:39;;;;;;;10.77;5.32;;;;;;;23.15;47.82;97792.19;5136302;27;20026;-34
2022/10/28 06:10:07;;;;;;;11.27;4.25;;;;;;;23.14;47.98;97799.75;5155294;27;20023;-33
2022/10/28 06:12:33;;;;;;;17.55;5.22;;;;;;;23.11;47.66;97797.94;5155182;27;20557;-34
2022/10/28 06:14:59;;;;;;;14.98;4.80;;;;;;;23.19;47.32;97801.84;5144197;27;20038;-34
2022/10/28 06:17:25;;;;;;;9.23;4.65;;;;;;;23.18;47.75;97803.09;5127404;27;20833;-34
2022/10/28 06:19:50;;;;;;;13.63;5.03;;;;;;;23.16;47.81;97802.81;5119924;27;20453;-33
2022/10/28 06:22:17;;;;;;;8.63;4.60;;;;;;;23.12;47.98;97802.22;5119878;27;20023;-33
2022/10/28 06:24:42;;;;;;;12.05;5.10;;;;;;;23.11;48.02;97805.50;5118337;27;20033;-32
2022/10/28 06:27:08;;;;;;;12.27;5.43;;;;;;;23.16;48.08;97805.56;5119338;27;20064;-33
2022/10/28 06:29:33;;;;;;;8.80;4.82;;;;;;;23.17;47.68;97806.34;5118849;27;20027;-32
2022/10/28 06:31:59;;;;;;;12.93;5.15;;;;;;;23.19;48.14;97801.84;5119025;27;20031;-33
2022/10/28 06:34:24;;;;;;;14.30;5.00;;;;;;;23.16;47.89;97805.56;5116539;27;20027;-34
2022/10/28 06:36:50;;;;;;;9.60;4.80;;;;;;;23.16;48.27;97802.81;5156130;27;20030;-32
2022/10/28 06:39:16;;;;;;;13.38;5.65;;;;;;;23.21;48.00;97807.69;5156562;27;20486;-33
2022/10/28 06:41:41;;;;;;;11.52;5.18;;;;;;;23.26;48.10;97811.75;5156596;27;20026;-32
2022/10/28 06:44:07;;;;;;;9.20;4.93;;;;;;;23.21;48.14;97815.22;5156792;27;20097;-32
2022/10/28 06:46:32;;;;;;;11.35;4.90;;;;;;;23.22;48.23;97822.28;5156556;27;20027;-32
2022/10/28 06:49:01;;;;;;;8.55;5.43;;;;;;;23.22;48.38;97825.81;5156418;27;20094;-32
2022/10/28 06:51:28;;;;;;;12.48;5.45;;;;;;;23.16;48.22;97829.72;5156524;27;20027;-32
2022/10/28 06:53:53;;;;;;;13.10;5.30;;;;;;;23.22;48.11;97828.59;5156161;27;20042;-32
2022/10/28 06:56:19;;;;;;;10.02;4.68;;;;;;;23.20;48.06;97830.28;5156313;27;20055;-32
2022/10/28 06:58:49;;;;;;;8.93;5.03;;;;;;;23.21;48.35;97838.13;5156241;27;20091;-33
2022/10/28 07:01:15;;;;;;;10.32;5.00;;;;;;;23.22;48.33;97836.88;5156276;27;20027;-34
2022/10/28 07:03:40;;;;;;;9.90;5.07;;;;;;;23.29;47.96;97839.25;5155757;27;20037;-32
2022/10/28 07:06:06;;;;;;;11.63;5.25;;;;;;;23.26;48.02;97834.66;5154423;27;20057;-32
2022/10/28 07:08:32;;;;;;;8.48;4.63;;;;;;;23.24;48.38;97844.72;5154714;27;20531;-34
2022/10/28 07:10:59;;;;;;;10.20;4.72;;;;;;;23.21;48.22;97842.91;5154783;27;20030;-32
2022/10/28 07:13:25;;;;;;;8.35;5.60;;;;;;;23.21;48.52;97851.19;5155595;27;20470;-33
2022/10/28 07:15:58;;;;;;;9.30;4.97;;;;;;;23.15;48.78;97850.31;5154744;27;20115;-34
2022/10/28 07:18:26;;;;;;;15.25;5.18;;;;;;;23.18;48.74;97850.13;5155847;27;20057;-35
2022/10/28 07:20:52;;;;;;;10.23;4.75;;;;;;;23.12;48.97;97851.28;5155198;27;20031;-34
2022/10/28 07:23:18;;;;;;;12.48;5.07;;;;;;;23.20;48.66;97847.66;5136779;27;20110;-32
2022/10/28 07:25:51;;;;;;;7.70;4.80;;;;;;;23.21;48.62;97862.28;5155864;27;20026;-32
2022/10/28 07:28:16;;;;;;;10.65;5.07;;;;;;;23.21;48.73;97859.50;5155703;27;20107;-32
2022/10/28 07:30:42;;;;;;;7.28;4.75;;;;;;;23.10;48.96;97862.06;5155684;27;20057;-32
2022/10/28 07:33:07;;;;;;;6.80;4.80;;;;;;;23.18;48.95;97861.22;5136963;27;20392;-32
2022/10/28 07:35:33;;;;;;;10.52;4.57;;;;;;;23.23;48.70;97862.56;5136541;27;20109;-32
2022/10/28 07:37:58;;;;;;;8.15;5.05;;;;;;;23.14;48.93;97871.69;5154751;27;20034;-33
2022/10/28 07:40:25;;;;;;;8.55;4.72;;;;;;;23.20;48.83;97863.50;5155537;27;20026;-32
2022/10/28 07:42:50;;;;;;;11.32;4.88;;;;;;;23.20;48.98;97869.03;5155285;27;20091;-32
2022/10/28 07:45:17;;;;;;;12.68;4.88;;;;;;;22.60;50.88;97866.59;5155420;27;20015;-32
2022/10/28 07:47:43;;;;;;;12.45;5.38;;;;;;;22.51;51.34;97870.19;5136898;27;20022;-33
2022/10/28 07:50:09;;;;;;;12.10;5.35;;;;;;;22.76;50.44;97869.72;5155534;27;20045;-33
2022/10/28 07:52:35;;;;;;;10.82;4.55;;;;;;;22.99;49.75;97868.16;5155155;27;20034;-34
2022/10/28 07:55:02;;;;;;;14.38;5.18;;;;;;;23.00;49.72;97869.66;5155029;27;20039;-34
2022/10/28 07:57:31;;;;;;;10.23;4.22;;;;;;;23.06;49.84;97870.56;5136663;27;20057;-33
2022/10/28 07:59:56;;;;;;;11.68;4.65;;;;;;;23.06;49.38;97881.63;5155304;27;20030;-33
2022/10/28 08:02:23;;;;;;;11.13;4.53;;;;;;;23.12;49.36;97874.16;5155193;27;20030;-33
2022/10/28 08:04:49;;;;;;;9.90;4.63;;;;;;;23.13;49.50;97874.94;5155489;27;20022;-34
2022/10/28 08:07:15;;;;;;;10.32;4.60;;;;;;;23.13;49.47;97863.88;5155260;27;20026;-33
2022/10/28 08:09:41;;;;;;;10.07;4.72;;;;;;;23.16;49.01;97860.91;5155280;27;20023;-32
2022/10/28 08:12:08;;;;;;;12.77;4.47;;;;;;;23.16;49.25;97868.47;5155156;27;20370;-34
2022/10/28 08:14:34;;;;;;;9.43;4.70;;;;;;;23.17;49.28;97858.91;5155075;27;20446;-32
2022/10/28 08:17:00;;;;;;;11.40;5.03;;;;;;;23.16;49.47;97868.47;5155262;27;20030;-34
2022/10/28 08:19:26;;;;;;;7.00;4.07;;;;;;;23.13;49.42;97874.94;5155071;27;20458;-33
2022/10/28 08:21:52;;;;;;;11.90;4.38;;;;;;;23.12;49.21;97876.94;5155044;27;20034;-33
2022/10/28 08:24:17;;;;;;;8.82;4.68;;;;;;;23.23;49.23;97868.88;5154875;27;20496;-34
2022/10/28 08:26:43;;;;;;;10.65;4.03;;;;;;;23.22;49.26;97867.34;5155031;27;20486;-33
2022/10/28 08:29:10;;;;;;;8.48;4.32;;;;;;;23.24;49.33;97864.81;5154887;27;20023;-35
2022/10/28 08:31:36;;;;;;;9.23;4.20;;;;;;;23.16;49.32;97872.00;5155201;27;20023;-33
2022/10/28 08:34:01;;;;;;;8.55;4.38;;;;;;;23.12;49.85;97865.13;5154789;27;20025;-33
2022/10/28 08:36:27;;;;;;;9.18;4.43;;;;;;;23.19;49.38;97870.28;5131623;27;20490;-33
2022/10/28 08:38:53;;;;;;;9.18;4.45;;;;;;;23.10;49.83;97862.84;5132889;28;20359;-33
2022/10/28 08:41:43;;;;;;;9.05;4.40;;;;;;;23.20;49.54;97864.28;5134145;28;20075;-34
2022/10/28 08:44:37;;;;;;;8.70;3.97;;;;;;;23.17;49.51;97865.22;5134090;28;20033;-33
2022/10/28 08:47:41;;;;;;;7.13;4.07;;;;;;;23.19;49.37;97865.50;5134009;27;20087;-33
2022/10/28 08:50:15;;;;;;;9.88;4.65;;;;;;;23.29;49.22;97866.19;5133918;27;20035;-32
2022/10/28 08:52:59;;;;;;;9.07;4.25;;;;;;;23.21;49.16;97857.50;5138315;27;20019;-33
2022/10/28 08:55:30;;;;;;;12.68;3.97;;;;;;;23.02;49.98;97864.44;5137832;27;20042;-34
2022/10/28 08:58:05;;;;;;;8.50;4.55;;;;;;;22.91;50.16;97867.00;5137867;27;20023;-33
2022/10/28 09:00:32;;;;;;;10.52;4.25;;;;;;;22.95;50.27;97870.34;5138093;27;20030;-33
2022/10/28 09:03:15;;;;;;;11.77;4.85;;;;;;;22.57;50.71;97871.84;5119524;27;20383;-32
2022/10/28 09:05:49;;;;;;;9.93;4.15;;;;;;;22.63;51.07;97871.16;5137871;27;20106;-34
2022/10/28 09:08:22;;;;;;;10.93;4.07;;;;;;;22.73;50.80;97869.88;5137917;27;20027;-33
2022/10/28 09:10:54;;;;;;;9.38;4.35;;;;;;;22.77;50.64;97871.25;5137667;27;20536;-33
2022/10/28 09:13:24;;;;;;;12.18;4.85;;;;;;;22.78;50.49;97872.78;5137635;27;20080;-33
2022/10/28 09:16:05;;;;;;;16.45;4.65;;;;;;;22.83;50.48;97876.91;5137383;27;20119;-34
2022/10/28 09:18:57;;;;;;;11.85;4.88;;;;;;;22.46;51.54;97879.91;5137884;27;20027;-35
2022/10/28 09:21:46;;;;;;;16.23;4.43;;;;;;;22.45;51.48;97872.84;5134320;27;20103;-33
2022/10/28 09:24:19;;;;;;;9.10;3.60;;;;;;;22.82;50.32;97884.44;5137464;27;20088;-33
2022/10/28 09:27:04;;;;;;;9.98;3.92;;;;;;;22.85;49.93;97877.19;5137598;27;20030;-33
2022/10/28 09:29:52;;;;;;;11.35;4.30;;;;;;;22.74;50.28;97877.72;5137301;27;20034;-33
2022/10/28 09:32:40;;;;;;;14.75;4.40;;;;;;;22.76;50.30;97885.53;5137331;27;20096;-33
2022/10/28 09:35:12;;;;;;;13.85;4.65;;;;;;;22.61;50.37;97885.50;5137120;27;20023;-33
2022/10/28 09:37:44;;;;;;;13.45;4.90;;;;;;;22.68;50.18;97881.59;5137207;27;20019;-33
2022/10/28 09:40:16;;;;;;;8.90;4.17;;;;;;;23.05;49.78;97885.63;5137631;27;20023;-33
2022/10/28 09:43:05;;;;;;;11.75;4.13;;;;;;;22.98;49.70;97890.78;5118587;27;20099;-33
2022/10/28 09:45:35;;;;;;;10.23;3.78;;;;;;;22.97;49.57;97892.00;5136992;27;20011;-33
2022/10/28 09:48:07;;;;;;;9.05;3.88;;;;;;;23.06;49.77;97894.69;5137111;27;20023;-33
2022/10/28 09:50:33;;;;;;;7.35;3.83;;;;;;;23.14;49.27;97882.75;5136974;27;20030;-33
2022/10/28 09:53:37;;;;;;;14.15;4.15;;;;;;;23.19;49.19;97884.88;5137027;27;20478;-33
2022/10/28 09:56:05;;;;;;;;;;;;;;;23.19;49.05;97882.13;5137297;27;20114;-33
2022/10/28 09:58:32;;;;;;;9.70;4.13;;;;;;;23.28;48.84;97870.19;5136759;27;19911;-34
2022/10/28 10:00:58;;;;;;;12.95;4.28;;;;;;;23.24;49.02;97886.97;5135979;27;20046;-33
2022/10/28 10:03:24;;;;;;;10.45;4.05;;;;;;;23.25;48.69;97888.50;5136619;27;20061;-34
2022/10/28 10:05:53;;;;;;;9.90;3.92;;;;;;;23.37;48.88;97883.19;5136518;27;20048;-33
2022/10/28 10:08:19;;;;;;;10.38;3.85;;;;;;;23.34;48.53;97884.13;5136956;27;20019;-34
2022/10/28 10:10:55;;;;;;;9.98;4.30;;;;;;;23.33;48.50;97877.06;5136423;27;20079;-33
2022/10/28 10:13:27;;;;;;;7.80;3.80;;;;;;;23.26;48.49;97872.66;5136397;27;20466;-33
2022/10/28 10:16:01;;;;;;;9.57;4.07;;;;;;;23.28;48.87;97887.56;5118181;27;20087;-33
2022/10/28 10:18:31;;;;;;;8.35;3.45;;;;;;;23.32;48.66;97878.31;5136643;27;20023;-35
2022/10/28 10:20:58;;;;;;;9.55;3.95;;;;;;;23.24;48.95;97875.91;5136440;27;20064;-33
2022/10/28 10:23:36;;;;;;;7.43;3.35;;;;;;;23.32;48.71;97872.78;5136385;27;20364;-33
2022/10/28 10:26:11;;;;;;;7.88;3.83;;;;;;;23.25;48.85;97866.34;5136247;27;20399;-33
2022/10/28 10:28:45;;;;;;;7.75;4.10;;;;;;;23.36;48.34;97881.66;5136154;27;20079;-34
2022/10/28 10:31:20;;;;;;;12.35;4.75;;;;;;;23.38;48.26;97865.31;5136179;27;20462;-32
2022/10/28 10:33:49;;;;;;;8.48;3.85;;;;;;;23.33;48.53;97861.22;5136091;27;20031;-32
2022/10/28 10:36:19;;;;;;;8.80;4.20;;;;;;;23.29;48.98;97861.41;5136094;27;20064;-33
2022/10/28 10:39:20;;;;;;;11.15;3.95;;;;;;;23.28;48.96;97859.09;5136417;27;20019;-32
2022/10/28 10:41:46;;;;;;;10.75;3.85;;;;;;;23.34;48.98;97864.75;5109167;27;20118;-32
2022/10/28 10:44:20;;;;;;;12.10;4.97;;;;;;;23.40;48.55;97865.59;5135856;27;20106;-32
2022/10/28 10:47:06;;;;;;;7.95;3.90;;;;;;;23.47;48.74;97868.00;5136012;27;20463;-33
2022/10/28 10:49:34;;;;;;;13.10;4.68;;;;;;;23.42;48.85;97863.13;5135569;27;20038;-34
2022/10/28 10:52:02;;;;;;;7.10;3.78;;;;;;;23.35;48.99;97867.06;5135762;27;20064;-33
2022/10/28 10:54:33;;;;;;;10.52;4.15;;;;;;;23.33;48.88;97869.53;5135346;27;20149;-33
2022/10/28 10:57:13;;;;;;;9.48;4.10;;;;;;;23.41;48.62;97859.59;5135638;27;20031;-34
2022/10/28 10:59:43;;;;;;;8.85;4.10;;;;;;;23.42;48.83;97860.34;5135912;27;20066;-34
2022/10/28 11:02:33;;;;;;;7.60;4.30;;;;;;;23.35;48.99;97860.75;5135788;27;20026;-33
2022/10/28 11:05:03;;;;;;;8.38;3.80;;;;;;;23.42;48.93;97860.34;5135535;27;20023;-33
2022/10/28 11:07:30;;;;;;;10.23;4.22;;;;;;;23.47;48.62;97854.16;5135364;27;20380;-33
2022/10/28 11:09:55;;;;;;;9.23;3.40;;;;;;;23.49;48.64;97854.44;5135321;27;20019;-33
2022/10/28 11:12:35;;;;;;;13.20;4.50;;;;;;;23.50;48.65;97861.50;5134355;27;20088;-33
2022/10/28 11:15:04;;;;;;;10.82;4.00;;;;;;;23.46;48.54;97855.41;5135220;27;20098;-33
2022/10/28 11:17:32;;;;;;;9.15;3.80;;;;;;;23.34;49.19;97848.16;5135088;27;20058;-33
2022/10/28 11:20:23;;;;;;;10.13;4.25;;;;;;;23.43;48.57;97848.81;5135194;27;20034;-33
2022/10/28 11:23:26;;;;;;;6.82;3.78;;;;;;;23.42;48.62;97849.28;5135430;27;20046;-33
2022/10/28 11:25:54;;;;;;;11.52;3.75;;;;;;;23.37;48.89;97838.91;5061320;27;20037;-33
2022/10/28 11:28:44;;;;;;;10.65;4.88;;;;;;;23.32;49.19;97834.00;5135400;27;20076;-33
2022/10/28 11:31:36;;;;;;;11.32;3.53;;;;;;;23.34;49.06;97834.31;5135065;27;20023;-33
2022/10/28 11:34:31;;;;;;;9.33;3.67;;;;;;;23.34;48.95;97834.31;5134958;27;20031;-33
2022/10/28 11:37:17;;;;;;;14.65;3.83;;;;;;;23.42;48.85;97832.66;5135157;27;20043;-33
2022/10/28 11:40:26;;;;;;;9.10;3.78;;;;;;;23.42;49.12;97830.66;5134890;27;20034;-33
2022/10/28 11:43:13;;;;;;;7.97;3.70;;;;;;;23.38;49.06;97823.78;5107553;27;20043;-32
2022/10/28 11:45:52;;;;;;;11.65;4.13;;;;;;;23.36;49.02;97813.22;5116215;27;20022;-33
2022/10/28 11:48:27;;;;;;;9.90;4.10;;;;;;;23.39;49.05;97814.25;5134752;27;20099;-33